Terminal Aerodrome Forecast
Issued by NWS

Home | Current Version | Previous Version | Text Only | Print | Product List | Glossary On
Versions: 1 2 3 4 5 6 7 8 9 10 11 12 13 14 15
000
FTUS46 KPQR 222330
TAFONP
TAF
KONP 222330Z 2300/2324 34015G22KT P6SM SCT300
     FM230400 35010G18KT P6SM BKN300
     FM230900 29008KT 5SM BR OVC010
     FM231200 30010KT 3SM -DZ BR OVC002=

USA.gov is the U.S. government's official web portal to all federal, state and local government web resources and services.